Time;durP1;ratioP1;P1;durP2;ratioP2;P2;SDS_P1;SDS_P2;PMS_P1;PMS_P2;Temp;Humidity;BMP_temperature;BMP_pressure;BME280_temperature;BME280_humidity;BME280_pressure;Samples;Min_cycle;Max_cycle;Signal;HPM_P1;HPM_P2
2022/07/19 00:00:46;;;;;;;2.83;0.90;;;8.60;99.90;;;;;;5057091;28;20465;-75
2022/07/19 00:03:16;;;;;;;2.35;0.70;;;8.60;99.90;;;;;;5057332;28;20032;-74
2022/07/19 00:05:44;;;;;;;4.53;0.93;;;8.60;99.90;;;;;;5056893;28;20496;-75
2022/07/19 00:08:12;;;;;;;3.75;0.80;;;8.70;99.90;;;;;;5056906;28;20029;-75
2022/07/19 00:10:39;;;;;;;1.98;1.10;;;8.70;99.90;;;;;;5056817;28;20385;-75
2022/07/19 00:13:07;;;;;;;3.80;0.60;;;8.60;99.90;;;;;;5056961;28;20068;-75
2022/07/19 00:15:34;;;;;;;2.33;1.10;;;8.70;99.90;;;;;;5055750;28;20480;-75
2022/07/19 00:18:02;;;;;;;2.65;0.80;;;8.80;99.90;;;;;;5056768;28;20051;-74
2022/07/19 00:20:29;;;;;;;3.78;1.05;;;8.90;99.90;;;;;;5057215;28;20091;-74
2022/07/19 00:22:56;;;;;;;3.72;1.15;;;9.10;99.90;;;;;;5056763;28;20032;-74
2022/07/19 00:25:24;;;;;;;1.58;0.65;;;9.10;99.90;;;;;;5056700;28;20036;-74
2022/07/19 00:27:51;;;;;;;2.58;1.20;;;9.20;99.90;;;;;;5056738;28;20020;-74
2022/07/19 00:30:18;;;;;;;3.83;1.13;;;9.30;99.90;;;;;;5056651;28;20029;-74
2022/07/19 00:32:45;;;;;;;3.45;1.10;;;9.40;99.90;;;;;;5056633;28;20021;-75
2022/07/19 00:35:13;;;;;;;5.03;1.05;;;9.50;99.90;;;;;;5056503;28;20374;-75
2022/07/19 00:37:40;;;;;;;2.92;1.00;;;9.60;99.90;;;;;;5056421;28;20027;-74
2022/07/19 00:40:08;;;;;;;3.03;0.90;;;9.60;99.90;;;;;;5056452;28;20025;-74
2022/07/19 00:42:35;;;;;;;4.55;0.90;;;9.60;99.90;;;;;;5056500;28;20013;-74
2022/07/19 00:45:03;;;;;;;5.80;1.00;;;9.70;99.90;;;;;;5056413;28;20482;-74
2022/07/19 00:47:30;;;;;;;4.60;0.90;;;9.70;99.90;;;;;;5056236;28;20022;-75
2022/07/19 00:49:58;;;;;;;3.25;1.48;;;9.90;99.90;;;;;;5056296;28;20067;-74
2022/07/19 00:52:28;;;;;;;3.33;0.80;;;9.90;99.90;;;;;;5056191;28;20025;-74
2022/07/19 00:54:56;;;;;;;2.10;0.93;;;9.90;99.90;;;;;;5056190;28;20075;-74
2022/07/19 00:57:24;;;;;;;7.25;1.60;;;9.90;99.90;;;;;;5056489;28;20067;-73
2022/07/19 00:59:55;;;;;;;9.35;1.15;;;10.00;99.90;;;;;;5056176;28;20531;-74
2022/07/19 01:02:23;;;;;;;4.43;1.05;;;10.00;99.90;;;;;;5055832;28;20045;-74
2022/07/19 01:04:50;;;;;;;2.58;0.70;;;10.00;99.90;;;;;;5055929;28;20108;-74
2022/07/19 01:07:17;;;;;;;5.05;1.15;;;10.10;99.90;;;;;;5056097;28;20041;-74
2022/07/19 01:09:45;;;;;;;4.30;0.70;;;10.20;99.90;;;;;;5055783;28;20466;-74
2022/07/19 01:12:12;;;;;;;2.47;0.80;;;10.30;99.90;;;;;;5055789;28;20017;-74
2022/07/19 01:14:40;;;;;;;3.75;1.10;;;10.40;99.90;;;;;;5055546;28;20025;-74
2022/07/19 01:17:07;;;;;;;5.22;1.17;;;10.40;99.90;;;;;;5055639;28;20021;-75
2022/07/19 01:19:34;;;;;;;3.45;1.10;;;10.50;99.90;;;;;;5055816;28;20021;-74
2022/07/19 01:22:02;;;;;;;2.55;0.85;;;10.50;99.90;;;;;;5055762;28;20473;-74
2022/07/19 01:24:29;;;;;;;1.40;0.90;;;10.50;99.90;;;;;;5055537;28;20465;-74
2022/07/19 01:26:57;;;;;;;4.25;1.05;;;10.60;99.90;;;;;;5055484;28;20025;-74
2022/07/19 01:29:24;;;;;;;3.03;1.10;;;10.60;99.90;;;;;;5055675;28;20017;-74
2022/07/19 01:31:52;;;;;;;2.72;1.20;;;10.70;99.90;;;;;;5055450;28;20351;-74
2022/07/19 01:34:22;;;;;;;4.93;1.20;;;10.70;99.90;;;;;;5055436;28;20516;-74
2022/07/19 01:36:49;;;;;;;3.67;0.75;;;10.80;99.90;;;;;;5055500;28;20049;-75
2022/07/19 01:39:17;;;;;;;2.65;0.70;;;10.80;99.90;;;;;;5055218;28;20029;-75
2022/07/19 01:41:44;;;;;;;1.38;0.70;;;10.80;99.90;;;;;;5055224;28;20025;-75
2022/07/19 01:44:11;;;;;;;5.65;0.70;;;10.90;99.90;;;;;;5055344;28;20037;-75
2022/07/19 01:46:38;;;;;;;4.60;0.90;;;10.90;99.90;;;;;;5055000;28;20111;-75
2022/07/19 01:49:06;;;;;;;0.82;0.50;;;10.90;99.90;;;;;;5055210;28;20025;-74
2022/07/19 01:51:33;;;;;;;5.63;1.15;;;10.90;99.90;;;;;;5055053;28;20441;-74
2022/07/19 01:54:00;;;;;;;1.63;0.77;;;10.90;99.90;;;;;;5054826;28;20017;-75
2022/07/19 01:56:28;;;;;;;5.10;1.13;;;10.90;99.90;;;;;;5054943;28;20017;-74
2022/07/19 01:58:55;;;;;;;4.53;1.23;;;11.00;99.90;;;;;;5054902;28;20017;-74
2022/07/19 02:01:22;;;;;;;8.55;1.02;;;10.90;99.90;;;;;;5054687;28;20041;-74
2022/07/19 02:03:50;;;;;;;4.68;1.65;;;10.90;99.90;;;;;;5054890;28;20481;-75
2022/07/19 02:06:17;;;;;;;6.60;1.35;;;10.90;99.90;;;;;;5053109;28;20044;-75
2022/07/19 02:08:45;;;;;;;4.20;1.38;;;11.00;99.90;;;;;;5054813;28;20032;-75
2022/07/19 02:13:59;;;;;;;0.80;0.43;;;11.10;99.90;;;;;;5054862;28;20036;-74
2022/07/19 02:16:27;;;;;;;2.60;0.63;;;11.20;99.90;;;;;;5054470;28;20025;-73
2022/07/19 02:18:55;;;;;;;4.25;0.70;;;11.30;99.90;;;;;;5053343;28;20496;-75
2022/07/19 02:21:22;;;;;;;2.63;0.85;;;11.30;99.90;;;;;;5053027;28;20092;-75
2022/07/19 02:23:50;;;;;;;1.98;0.50;;;11.30;99.90;;;;;;5054412;28;20086;-74
2022/07/19 02:26:18;;;;;;;1.52;0.82;;;11.30;99.90;;;;;;5054321;28;20025;-74
2022/07/19 02:28:46;;;;;;;2.83;0.80;;;11.30;99.90;;;;;;5054347;28;20021;-74
2022/07/19 02:31:13;;;;;;;8.32;1.33;;;11.40;99.90;;;;;;5054520;28;20099;-75
2022/07/19 02:33:41;;;;;;;1.73;0.70;;;11.40;99.90;;;;;;5054105;28;20025;-75
2022/07/19 02:36:09;;;;;;;5.10;0.60;;;11.40;99.90;;;;;;5054153;28;20082;-75
2022/07/19 02:38:36;;;;;;;2.38;1.20;;;11.40;99.90;;;;;;5053991;28;20021;-74
2022/07/19 02:41:04;;;;;;;1.85;0.47;;;11.40;99.90;;;;;;5054246;28;20020;-75
2022/07/19 02:43:32;;;;;;;3.33;0.90;;;11.40;99.90;;;;;;5052752;28;20021;-74
2022/07/19 02:46:00;;;;;;;2.65;1.08;;;11.40;99.90;;;;;;5053808;28;20033;-74
2022/07/19 02:48:28;;;;;;;3.22;0.68;;;11.40;99.90;;;;;;5054018;28;20013;-74
2022/07/19 02:50:55;;;;;;;5.90;1.08;;;11.40;99.90;;;;;;5053922;28;20035;-75
2022/07/19 02:53:23;;;;;;;4.32;0.98;;;11.40;99.90;;;;;;5052530;28;20474;-74
2022/07/19 02:55:51;;;;;;;1.75;0.80;;;11.40;99.90;;;;;;5053886;28;20025;-75
2022/07/19 02:58:19;;;;;;;2.72;0.75;;;11.50;99.90;;;;;;5053960;28;20061;-74
2022/07/19 03:00:47;;;;;;;5.88;1.00;;;11.50;99.90;;;;;;5053389;28;20435;-73
2022/07/19 03:06:00;;;;;;;2.00;0.57;;;11.50;99.90;;;;;;5054100;28;20386;-75
2022/07/19 03:08:28;;;;;;;3.58;1.15;;;11.50;99.90;;;;;;5053830;28;20440;-74
2022/07/19 03:10:56;;;;;;;2.80;0.88;;;11.50;99.90;;;;;;5053670;28;20107;-75
2022/07/19 03:13:26;;;;;;;1.17;0.88;;;11.40;99.90;;;;;;5053707;28;20104;-75
2022/07/19 03:15:54;;;;;;;6.18;1.27;;;11.30;99.90;;;;;;5053516;28;20458;-75
2022/07/19 03:18:22;;;;;;;1.83;0.68;;;11.20;99.90;;;;;;5052756;28;20108;-75
2022/07/19 03:20:49;;;;;;;5.20;0.60;;;11.10;99.90;;;;;;5053595;28;20021;-75
2022/07/19 03:23:17;;;;;;;4.80;0.95;;;11.00;99.90;;;;;;5053616;28;20021;-75
2022/07/19 03:25:45;;;;;;;0.75;0.60;;;10.90;99.90;;;;;;5053212;28;20067;-75
2022/07/19 03:28:13;;;;;;;1.92;0.63;;;10.80;99.90;;;;;;5053449;28;20021;-74
2022/07/19 03:30:40;;;;;;;0.85;0.50;;;10.80;99.90;;;;;;5053419;28;20493;-74
2022/07/19 03:33:08;;;;;;;1.48;0.60;;;10.90;99.90;;;;;;5053148;28;20025;-74
2022/07/19 03:35:36;;;;;;;2.25;0.65;;;10.90;99.90;;;;;;5053471;28;20029;-75
2022/07/19 03:38:04;;;;;;;1.63;0.70;;;10.90;99.90;;;;;;5053363;28;20390;-75
2022/07/19 03:40:32;;;;;;;4.32;0.80;;;10.90;99.90;;;;;;5053175;28;20052;-75
2022/07/19 03:42:59;;;;;;;1.42;0.50;;;11.00;99.90;;;;;;5051990;28;20504;-75
2022/07/19 03:45:27;;;;;;;1.80;0.73;;;11.00;99.90;;;;;;5053243;28;20163;-75
2022/07/19 03:47:55;;;;;;;5.65;0.90;;;11.00;99.90;;;;;;5053272;28;20047;-76
2022/07/19 03:50:22;;;;;;;2.83;0.90;;;10.90;99.90;;;;;;5053209;28;20025;-75
2022/07/19 03:52:50;;;;;;;2.72;0.60;;;10.80;99.90;;;;;;5053246;28;20074;-75
2022/07/19 03:55:18;;;;;;;2.65;0.95;;;10.70;99.90;;;;;;5053305;28;20029;-75
2022/07/19 03:57:45;;;;;;;4.50;1.23;;;10.70;99.90;;;;;;5053223;28;20028;-75
2022/07/19 04:00:13;;;;;;;8.63;1.15;;;10.60;99.90;;;;;;5053231;28;20025;-75
2022/07/19 04:02:42;;;;;;;7.07;1.05;;;10.60;99.90;;;;;;5053536;28;20045;-75
2022/07/19 04:05:10;;;;;;;7.40;1.15;;;10.60;99.90;;;;;;5052883;28;20124;-75
2022/07/19 04:07:37;;;;;;;1.58;0.73;;;10.50;99.90;;;;;;5052942;28;20053;-74
2022/07/19 04:10:05;;;;;;;3.03;0.65;;;10.60;99.90;;;;;;5053075;28;20033;-75
2022/07/19 04:12:34;;;;;;;3.20;0.90;;;10.50;99.90;;;;;;5052975;28;20059;-75
2022/07/19 04:15:02;;;;;;;2.88;0.70;;;10.50;99.90;;;;;;5052978;28;20033;-74
2022/07/19 04:17:30;;;;;;;1.85;0.82;;;10.50;99.90;;;;;;5053102;28;20036;-75
2022/07/19 04:19:57;;;;;;;5.72;1.25;;;10.50;99.90;;;;;;5052826;28;20028;-74
2022/07/19 04:22:25;;;;;;;6.45;0.90;;;10.40;99.90;;;;;;5052902;28;20112;-74
2022/07/19 04:24:53;;;;;;;2.85;0.70;;;10.40;99.90;;;;;;5052824;28;20044;-74
2022/07/19 04:27:21;;;;;;;2.92;0.85;;;10.30;99.90;;;;;;5052910;28;20032;-74
2022/07/19 04:29:49;;;;;;;10.27;1.40;;;10.20;99.90;;;;;;5053990;28;20111;-74
2022/07/19 04:32:16;;;;;;;4.70;1.10;;;10.20;99.90;;;;;;5056665;28;20437;-74
2022/07/19 04:34:44;;;;;;;4.63;0.70;;;10.20;99.90;;;;;;5056421;28;20104;-73
2022/07/19 04:37:12;;;;;;;5.15;1.27;;;10.20;99.90;;;;;;5056293;28;20041;-74
2022/07/19 04:39:39;;;;;;;4.63;0.82;;;10.20;99.90;;;;;;5056500;28;20017;-74
2022/07/19 04:42:07;;;;;;;4.70;1.35;;;10.10;99.90;;;;;;5056461;28;20025;-74
2022/07/19 04:44:35;;;;;;;3.45;0.70;;;10.00;99.90;;;;;;5056376;28;20121;-74
2022/07/19 04:47:03;;;;;;;5.10;0.60;;;10.00;99.90;;;;;;5056874;28;20373;-73
2022/07/19 04:49:32;;;;;;;0.55;0.45;;;10.00;99.90;;;;;;5056184;28;20435;-73
2022/07/19 04:51:59;;;;;;;1.02;0.50;;;9.90;99.90;;;;;;5056266;28;20021;-73
2022/07/19 04:54:27;;;;;;;2.40;1.00;;;9.90;99.90;;;;;;5056189;28;20024;-74
2022/07/19 04:56:55;;;;;;;2.75;0.95;;;9.90;99.90;;;;;;5056106;28;20025;-74
2022/07/19 04:59:23;;;;;;;3.67;1.00;;;9.90;99.90;;;;;;5056220;28;20024;-74
2022/07/19 05:01:50;;;;;;;1.38;0.70;;;9.80;99.90;;;;;;5055844;28;20465;-75
2022/07/19 05:04:18;;;;;;;1.85;0.70;;;9.80;99.90;;;;;;5055984;28;20371;-73
2022/07/19 05:06:46;;;;;;;1.85;0.77;;;9.80;99.90;;;;;;5055934;28;20013;-73
2022/07/19 05:09:14;;;;;;;1.52;1.10;;;9.80;99.90;;;;;;5055995;28;20048;-74
2022/07/19 05:11:42;;;;;;;3.92;0.98;;;9.80;99.90;;;;;;5055767;28;20031;-74
2022/07/19 05:14:09;;;;;;;1.73;1.27;;;9.80;99.90;;;;;;5055700;28;20556;-74
2022/07/19 05:16:37;;;;;;;4.88;1.00;;;9.80;99.90;;;;;;5055738;28;20068;-74
2022/07/19 05:19:04;;;;;;;2.40;0.90;;;9.80;99.90;;;;;;5055757;28;20063;-74
2022/07/19 05:21:32;;;;;;;4.80;1.75;;;9.70;99.90;;;;;;5054479;28;20021;-74
2022/07/19 05:24:00;;;;;;;5.65;1.10;;;9.70;99.90;;;;;;5055480;28;20059;-74
2022/07/19 05:26:28;;;;;;;2.63;1.00;;;9.70;99.90;;;;;;5055621;28;20485;-73
2022/07/19 05:28:55;;;;;;;1.20;0.80;;;9.60;99.90;;;;;;5055469;28;20021;-74
2022/07/19 05:31:23;;;;;;;5.97;0.90;;;9.70;99.90;;;;;;5055359;28;20090;-74
2022/07/19 05:33:51;;;;;;;2.47;0.82;;;9.60;99.90;;;;;;5055322;28;20027;-73
2022/07/19 05:36:19;;;;;;;4.22;1.02;;;9.60;99.90;;;;;;5055381;28;20036;-73
2022/07/19 05:38:46;;;;;;;6.07;0.77;;;9.60;99.90;;;;;;5055552;28;20484;-74
2022/07/19 05:41:16;;;;;;;1.63;0.70;;;9.60;99.90;;;;;;5054247;28;20037;-73
2022/07/19 05:43:43;;;;;;;7.60;1.25;;;9.60;99.90;;;;;;5055701;28;20067;-74
2022/07/19 05:46:11;;;;;;;4.13;1.42;;;9.60;99.90;;;;;;5055212;28;20020;-75
2022/07/19 05:48:39;;;;;;;2.45;1.00;;;9.70;99.90;;;;;;5055276;28;20100;-74
2022/07/19 05:51:07;;;;;;;3.45;1.45;;;9.70;99.90;;;;;;5055339;28;20104;-74
2022/07/19 05:53:36;;;;;;;3.63;1.13;;;9.70;99.90;;;;;;5054973;28;20033;-74
2022/07/19 05:56:05;;;;;;;3.45;0.90;;;9.70;99.90;;;;;;5054920;28;20075;-73
2022/07/19 05:58:33;;;;;;;3.67;1.42;;;9.70;99.90;;;;;;5054972;28;20028;-73
2022/07/19 06:01:18;;;;;;;2.17;1.23;;;9.60;99.90;;;;;;5054797;28;20139;-74
2022/07/19 06:03:47;;;;;;;6.93;1.48;;;9.70;99.90;;;;;;5055049;28;20082;-74
2022/07/19 06:06:15;;;;;;;1.00;0.70;;;9.70;99.90;;;;;;5054979;28;20025;-74
2022/07/19 06:08:44;;;;;;;3.20;1.00;;;9.70;99.90;;;;;;5054807;28;20021;-73
2022/07/19 06:11:12;;;;;;;2.60;1.00;;;9.70;99.90;;;;;;5054780;28;20090;-73
2022/07/19 06:13:40;;;;;;;4.50;1.42;;;9.60;99.90;;;;;;5053235;28;20028;-74
2022/07/19 06:16:09;;;;;;;4.57;1.60;;;9.60;99.90;;;;;;5054602;28;20017;-74
2022/07/19 06:18:37;;;;;;;3.05;1.00;;;9.60;99.90;;;;;;5053459;28;20133;-73
2022/07/19 06:21:15;;;;;;;6.30;2.47;;;9.60;99.90;;;;;;5054521;28;20078;-73
2022/07/19 06:23:43;;;;;;;2.88;1.85;;;9.60;99.90;;;;;;5054554;28;20024;-73
2022/07/19 06:26:12;;;;;;;5.07;2.00;;;9.60;99.90;;;;;;5054397;28;20037;-74
2022/07/19 06:28:40;;;;;;;1.85;1.10;;;9.60;99.90;;;;;;5054455;28;20025;-73
2022/07/19 06:31:13;;;;;;;4.50;1.00;;;9.60;99.90;;;;;;5054215;28;20032;-73
2022/07/19 06:33:42;;;;;;;2.58;1.52;;;9.60;99.90;;;;;;5054126;28;20013;-72
2022/07/19 06:36:10;;;;;;;4.05;1.63;;;9.60;99.90;;;;;;5054137;28;20021;-74
2022/07/19 06:38:38;;;;;;;3.85;1.42;;;9.60;99.90;;;;;;5054258;28;20108;-73
2022/07/19 06:41:06;;;;;;;4.13;1.63;;;9.60;99.90;;;;;;5054763;28;20021;-74
2022/07/19 06:43:34;;;;;;;5.05;1.88;;;9.50;99.90;;;;;;5054229;28;20017;-73
2022/07/19 06:46:01;;;;;;;5.00;2.10;;;9.50;99.90;;;;;;5053877;28;20117;-74
2022/07/19 06:48:29;;;;;;;6.03;2.08;;;9.50;99.90;;;;;;5054027;28;20029;-73
2022/07/19 06:50:57;;;;;;;4.97;1.90;;;9.50;99.90;;;;;;5053970;28;20118;-72
2022/07/19 06:53:24;;;;;;;4.78;1.90;;;9.50;99.90;;;;;;5053698;28;20470;-73
2022/07/19 06:55:52;;;;;;;4.43;1.50;;;9.50;99.90;;;;;;5053879;28;20032;-74
2022/07/19 06:58:20;;;;;;;7.28;2.15;;;9.50;99.90;;;;;;5053750;28;20359;-73
2022/07/19 07:00:48;;;;;;;5.93;1.15;;;9.50;99.90;;;;;;5053650;28;20021;-74
2022/07/19 07:03:17;;;;;;;3.45;1.40;;;9.50;99.90;;;;;;5053757;28;20044;-75
2022/07/19 07:05:45;;;;;;;5.03;1.60;;;9.50;99.90;;;;;;5053662;28;20478;-74
2022/07/19 07:08:13;;;;;;;4.28;2.67;;;9.40;99.90;;;;;;5053822;28;20504;-73
2022/07/19 07:10:41;;;;;;;4.57;1.95;;;9.50;99.90;;;;;;5052297;28;20029;-74
2022/07/19 07:13:09;;;;;;;4.80;2.00;;;9.40;99.90;;;;;;5053729;28;20367;-73
2022/07/19 07:15:38;;;;;;;3.58;2.13;;;9.50;99.90;;;;;;5053568;28;20047;-74
2022/07/19 07:18:06;;;;;;;4.78;2.00;;;9.50;99.90;;;;;;5053483;28;20496;-72
2022/07/19 07:20:34;;;;;;;3.85;1.48;;;9.40;99.90;;;;;;5053670;28;20423;-74
2022/07/19 07:23:03;;;;;;;4.28;1.70;;;9.40;99.90;;;;;;5053594;28;20458;-73
2022/07/19 07:25:31;;;;;;;4.53;1.98;;;9.40;99.90;;;;;;5053202;28;20167;-75
2022/07/19 07:27:58;;;;;;;4.38;1.77;;;9.40;99.90;;;;;;5053477;28;20045;-73
2022/07/19 07:30:26;;;;;;;3.88;2.65;;;9.40;99.90;;;;;;5053430;28;20479;-73
2022/07/19 07:32:54;;;;;;;3.65;2.17;;;9.40;99.90;;;;;;5053942;28;20027;-73
2022/07/19 07:35:22;;;;;;;3.08;2.38;;;9.50;99.90;;;;;;5053453;28;20462;-72
2022/07/19 07:37:50;;;;;;;5.22;3.00;;;9.50;99.90;;;;;;5053344;28;20032;-73
2022/07/19 07:40:18;;;;;;;4.20;2.67;;;9.40;99.90;;;;;;5053268;28;20029;-73
2022/07/19 07:42:45;;;;;;;3.95;2.70;;;9.40;99.90;;;;;;5053146;28;20063;-75
2022/07/19 07:45:14;;;;;;;5.00;3.33;;;9.40;99.90;;;;;;5053114;28;20029;-72
2022/07/19 07:47:42;;;;;;;5.00;2.95;;;9.40;99.90;;;;;;5053187;28;20025;-74
2022/07/19 07:50:10;;;;;;;6.38;2.72;;;9.40;99.90;;;;;;5053324;28;20373;-75
2022/07/19 07:52:37;;;;;;;3.92;2.45;;;9.40;99.90;;;;;;5053039;28;20032;-74
2022/07/19 07:55:06;;;;;;;5.80;2.40;;;9.40;99.90;;;;;;5053119;28;20025;-74
2022/07/19 07:57:33;;;;;;;3.78;2.65;;;9.30;99.90;;;;;;5052957;28;20025;-74
2022/07/19 08:00:01;;;;;;;5.70;3.03;;;9.30;99.90;;;;;;5053055;28;20458;-73
2022/07/19 08:02:29;;;;;;;3.10;2.78;;;9.30;99.90;;;;;;5052853;28;20124;-73
2022/07/19 08:04:57;;;;;;;6.47;3.30;;;9.30;99.90;;;;;;5054501;28;20033;-73
2022/07/19 08:07:24;;;;;;;4.80;2.78;;;9.20;99.90;;;;;;5057012;28;20024;-74
2022/07/19 08:09:52;;;;;;;3.50;2.80;;;9.20;99.90;;;;;;5057138;28;20508;-73
2022/07/19 08:12:22;;;;;;;4.63;2.95;;;9.20;99.90;;;;;;5057096;28;20031;-73
2022/07/19 08:14:50;;;;;;;4.93;3.30;;;9.20;99.90;;;;;;5056921;28;20048;-74
2022/07/19 08:17:17;;;;;;;3.40;2.40;;;9.20;99.90;;;;;;5055484;28;20033;-74
2022/07/19 08:19:45;;;;;;;2.42;2.22;;;9.10;99.90;;;;;;5056815;28;20037;-74
2022/07/19 08:22:20;;;;;;;3.45;2.05;;;9.20;99.90;;;;;;5056849;28;20108;-75
2022/07/19 08:24:48;;;;;;;2.63;1.90;;;9.20;99.90;;;;;;5056766;28;20028;-75
2022/07/19 08:27:16;;;;;;;5.55;2.50;;;9.20;99.90;;;;;;5056529;28;20478;-75
2022/07/19 08:29:43;;;;;;;3.42;3.03;;;9.10;99.90;;;;;;5056788;28;20029;-74
2022/07/19 08:32:11;;;;;;;5.72;3.38;;;9.10;99.90;;;;;;5056611;28;20520;-74
2022/07/19 08:34:39;;;;;;;6.65;2.75;;;9.10;99.90;;;;;;5056376;28;20043;-74
2022/07/19 08:37:06;;;;;;;2.42;2.10;;;9.10;99.90;;;;;;5056396;28;20024;-74
2022/07/19 08:39:34;;;;;;;4.88;2.40;;;9.10;99.90;;;;;;5057353;28;20017;-73
2022/07/19 08:42:02;;;;;;;4.75;3.28;;;9.10;99.90;;;;;;5056346;28;20393;-73
2022/07/19 08:44:32;;;;;;;3.30;3.00;;;9.10;99.90;;;;;;5056288;28;20048;-74
2022/07/19 08:47:00;;;;;;;4.35;3.92;;;9.10;99.90;;;;;;5056227;28;20017;-72
2022/07/19 08:49:28;;;;;;;6.72;3.30;;;9.10;99.90;;;;;;5056344;28;20545;-74
2022/07/19 08:51:57;;;;;;;6.57;4.05;;;9.10;99.90;;;;;;5056459;28;20036;-73
2022/07/19 08:54:25;;;;;;;5.28;4.15;;;9.10;99.90;;;;;;5056089;28;20024;-74
2022/07/19 08:59:39;;;;;;;3.35;2.53;;;9.10;99.90;;;;;;5056537;28;20052;-75
2022/07/19 09:02:07;;;;;;;5.57;4.35;;;9.10;99.90;;;;;;5055949;28;20128;-73
2022/07/19 09:04:35;;;;;;;4.68;3.92;;;9.10;99.90;;;;;;5056092;28;20029;-73
2022/07/19 09:07:02;;;;;;;6.93;3.78;;;9.10;99.90;;;;;;5055840;28;20470;-72
2022/07/19 09:09:42;;;;;;;5.10;3.50;;;9.10;99.90;;;;;;5055920;28;20379;-73
2022/07/19 09:12:09;;;;;;;3.45;3.15;;;9.10;99.90;;;;;;5055864;28;20043;-74
2022/07/19 09:14:41;;;;;;;7.90;3.50;;;9.10;99.90;;;;;;5055720;28;20032;-74
2022/07/19 09:17:16;;;;;;;3.85;3.13;;;9.10;99.90;;;;;;5054425;28;20074;-75
2022/07/19 09:19:46;;;;;;;3.60;3.05;;;9.00;99.90;;;;;;5055948;28;20021;-75
2022/07/19 09:22:16;;;;;;;3.92;3.53;;;9.10;99.90;;;;;;5055652;28;20021;-73
2022/07/19 09:24:49;;;;;;;4.15;3.17;;;9.00;99.90;;;;;;5055591;28;20029;-74
2022/07/19 09:27:25;;;;;;;4.13;3.30;;;9.00;99.90;;;;;;5055738;28;20025;-73
2022/07/19 09:29:59;;;;;;;7.15;4.03;;;9.00;99.90;;;;;;5055762;28;20048;-74
2022/07/19 09:32:27;;;;;;;3.75;3.38;;;9.10;99.90;;;;;;5055672;28;20017;-74
2022/07/19 09:34:57;;;;;;;4.88;3.30;;;9.00;99.90;;;;;;5055474;28;20021;-73
2022/07/19 09:37:30;;;;;;;5.30;2.92;;;9.00;99.90;;;;;;5055434;28;20017;-74
2022/07/19 09:40:07;;;;;;;4.97;3.33;;;9.00;99.90;;;;;;5055554;28;20098;-74
2022/07/19 09:42:39;;;;;;;6.20;3.63;;;9.00;99.90;;;;;;5055339;28;20039;-72
2022/07/19 09:45:10;;;;;;;4.75;3.13;;;9.00;99.90;;;;;;5055130;28;20559;-72
2022/07/19 09:47:41;;;;;;;5.38;3.28;;;9.00;99.90;;;;;;5055229;28;20017;-74
2022/07/19 09:50:11;;;;;;;8.38;5.57;;;9.00;99.90;;;;;;5055411;28;20047;-75
2022/07/19 09:52:40;;;;;;;11.30;7.38;;;9.00;99.90;;;;;;5055134;28;20033;-74
2022/07/19 09:55:09;;;;;;;7.03;5.38;;;9.00;99.90;;;;;;5054856;28;20025;-73
2022/07/19 09:57:42;;;;;;;9.25;3.75;;;9.00;99.90;;;;;;5054989;28;20023;-73
2022/07/19 10:00:11;;;;;;;7.70;4.43;;;9.00;99.90;;;;;;5054997;28;20470;-74
2022/07/19 10:02:45;;;;;;;5.13;3.72;;;9.00;99.90;;;;;;5054799;28;20049;-75
2022/07/19 10:05:13;;;;;;;7.45;4.10;;;9.00;99.90;;;;;;5054935;28;20099;-73
2022/07/19 10:07:42;;;;;;;6.20;3.65;;;9.00;99.90;;;;;;5054917;28;20025;-74
2022/07/19 10:10:13;;;;;;;6.22;4.88;;;8.90;99.90;;;;;;5054739;28;20021;-74
2022/07/19 10:12:43;;;;;;;5.95;3.63;;;9.00;99.90;;;;;;5054651;28;20496;-74
2022/07/19 10:15:13;;;;;;;7.35;4.07;;;8.90;99.90;;;;;;5054645;28;20497;-73
2022/07/19 10:18:01;;;;;;;8.32;4.68;;;8.90;99.90;;;;;;5054713;28;20032;-73
2022/07/19 10:20:30;;;;;;;6.18;4.00;;;8.90;99.90;;;;;;5054680;28;20025;-72
2022/07/19 10:23:03;;;;;;;5.28;4.55;;;8.90;99.90;;;;;;5054598;28;20021;-75
2022/07/19 10:25:45;;;;;;;6.07;4.50;;;8.90;99.90;;;;;;5054355;28;20033;-72
2022/07/19 10:28:28;;;;;;;5.22;4.38;;;8.90;99.90;;;;;;5054227;28;20028;-72
2022/07/19 10:30:56;;;;;;;9.77;7.13;;;8.90;99.90;;;;;;5054324;28;20111;-72
2022/07/19 10:33:28;;;;;;;12.43;7.85;;;8.90;99.90;;;;;;5054162;28;20040;-72
2022/07/19 10:35:56;;;;;;;11.00;8.27;;;8.90;99.90;;;;;;5054510;28;20474;-72
2022/07/19 10:38:24;;;;;;;12.27;9.02;;;8.90;99.90;;;;;;5054165;28;20032;-73
2022/07/19 10:40:58;;;;;;;7.22;5.93;;;8.90;99.90;;;;;;5054432;28;20056;-74
2022/07/19 10:43:27;;;;;;;9.05;4.95;;;8.90;99.90;;;;;;5054201;28;20378;-73
2022/07/19 10:46:03;;;;;;;7.43;4.75;;;8.90;99.90;;;;;;5053918;28;20044;-72
2022/07/19 10:48:37;;;;;;;8.93;4.45;;;8.90;99.90;;;;;;5054004;28;20021;-73
2022/07/19 10:51:25;;;;;;;7.60;4.90;;;8.90;99.90;;;;;;5054460;28;20417;-72
2022/07/19 10:54:03;;;;;;;9.25;4.40;;;8.90;99.90;;;;;;5053593;28;20033;-74
2022/07/19 10:56:39;;;;;;;5.25;3.92;;;8.80;99.90;;;;;;5053984;28;20478;-72
2022/07/19 10:59:10;;;;;;;7.05;4.82;;;8.90;99.90;;;;;;5054022;28;20054;-73
2022/07/19 11:01:53;;;;;;;5.53;3.85;;;8.80;99.90;;;;;;5053593;28;20382;-72
2022/07/19 11:04:28;;;;;;;9.95;3.97;;;8.80;99.90;;;;;;5053707;28;20504;-75
2022/07/19 11:07:11;;;;;;;4.80;3.88;;;8.80;99.90;;;;;;5054051;28;20021;-73
2022/07/19 11:09:52;;;;;;;4.47;3.47;;;8.80;99.90;;;;;;5053786;28;20048;-74
2022/07/19 11:12:29;;;;;;;6.35;3.90;;;8.80;99.90;;;;;;5053725;28;20440;-74
2022/07/19 11:14:59;;;;;;;5.93;4.22;;;8.80;99.90;;;;;;5053656;28;20020;-73
2022/07/19 11:17:26;;;;;;;4.90;3.90;;;8.80;99.90;;;;;;5053591;28;20105;-72
2022/07/19 11:20:07;;;;;;;5.55;4.15;;;8.80;99.90;;;;;;5053736;28;20474;-73
2022/07/19 11:22:47;;;;;;;6.13;4.80;;;8.70;99.90;;;;;;5053731;28;20029;-75
2022/07/19 11:25:22;;;;;;;7.55;5.90;;;8.70;99.90;;;;;;5053384;28;20029;-74
2022/07/19 11:27:50;;;;;;;6.85;5.55;;;8.70;99.90;;;;;;5053534;28;20021;-73
2022/07/19 11:30:17;;;;;;;7.45;5.25;;;8.60;99.90;;;;;;5053484;28;20040;-72
2022/07/19 11:32:59;;;;;;;8.98;5.53;;;8.60;99.90;;;;;;5053380;28;20013;-73
2022/07/19 11:35:27;;;;;;;6.88;5.05;;;8.60;99.90;;;;;;5053371;28;20021;-75
2022/07/19 11:37:56;;;;;;;7.07;5.43;;;8.60;99.90;;;;;;5053361;28;20417;-72
2022/07/19 11:40:25;;;;;;;7.68;5.50;;;8.60;99.90;;;;;;5052608;28;20371;-73
2022/07/19 11:42:53;;;;;;;7.65;5.15;;;8.60;99.90;;;;;;5053344;28;20025;-72
2022/07/19 11:45:23;;;;;;;11.75;5.63;;;8.60;99.90;;;;;;5053256;28;20041;-72
2022/07/19 11:47:54;;;;;;;7.28;5.20;;;8.50;99.90;;;;;;5053386;28;20100;-72
2022/07/19 11:50:24;;;;;;;6.50;5.15;;;8.50;99.90;;;;;;5053416;28;20031;-72
2022/07/19 11:52:54;;;;;;;7.22;5.30;;;8.50;99.90;;;;;;5053279;28;20500;-72
2022/07/19 11:55:24;;;;;;;9.23;6.07;;;8.50;99.90;;;;;;5053372;28;20090;-76
2022/07/19 11:57:52;;;;;;;8.40;6.97;;;8.40;99.90;;;;;;5052818;28;20096;-79
2022/07/19 12:00:20;;;;;;;8.55;6.30;;;8.40;99.90;;;;;;5052964;28;20025;-75
2022/07/19 12:03:08;;;;;;;12.90;7.93;;;8.40;99.90;;;;;;5052855;28;20048;-76
2022/07/19 12:05:38;;;;;;;7.22;6.28;;;8.30;99.90;;;;;;5069463;28;20429;-76
2022/07/19 12:08:09;;;;;;;4.75;4.18;;;8.30;99.90;;;;;;5072651;28;20082;-76
2022/07/19 12:10:53;;;;;;;11.23;8.50;;;8.30;99.90;;;;;;5072739;28;20031;-75
2022/07/19 12:13:32;;;;;;;10.93;8.27;;;8.30;99.90;;;;;;5072632;28;20025;-74
2022/07/19 12:16:10;;;;;;;15.82;9.18;;;8.30;99.90;;;;;;5072719;28;20017;-75
2022/07/19 12:18:51;;;;;;;9.77;7.72;;;8.30;99.90;;;;;;5058950;28;20020;-77
2022/07/19 12:21:24;;;;;;;10.50;6.93;;;8.30;99.90;;;;;;5051059;28;20033;-74
2022/07/19 12:24:10;;;;;;;8.52;5.68;;;8.30;99.90;;;;;;5049816;28;20012;-74
2022/07/19 12:26:39;;;;;;;13.88;5.55;;;8.30;99.90;;;;;;5034389;28;20029;-74
2022/07/19 12:29:20;;;;;;;9.70;5.95;;;8.30;99.90;;;;;;5035494;28;20482;-75
2022/07/19 12:31:48;;;;;;;6.63;4.70;;;8.30;99.90;;;;;;5033302;28;20104;-74
2022/07/19 12:34:16;;;;;;;8.95;4.80;;;8.20;99.90;;;;;;5033656;28;20065;-73
2022/07/19 12:36:44;;;;;;;5.45;4.75;;;8.20;99.90;;;;;;5032559;28;20024;-75
2022/07/19 12:39:37;;;;;;;5.00;4.07;;;8.20;99.90;;;;;;5037038;28;20030;-74
2022/07/19 12:42:07;;;;;;;6.95;4.78;;;8.10;99.90;;;;;;5032036;28;20045;-74
2022/07/19 12:44:35;;;;;;;7.05;5.03;;;8.10;99.90;;;;;;5034856;28;21696;-74
2022/07/19 12:47:05;;;;;;;10.48;4.55;;;8.10;99.90;;;;;;5033029;28;20018;-75
2022/07/19 12:49:43;;;;;;;7.63;5.10;;;8.00;99.90;;;;;;5033191;28;20105;-73
2022/07/19 12:52:11;;;;;;;7.95;4.50;;;8.00;99.90;;;;;;5039286;28;20024;-73
2022/07/19 12:54:38;;;;;;;6.32;5.10;;;8.00;99.90;;;;;;5037063;28;20072;-74
2022/07/19 12:57:06;;;;;;;7.88;5.28;;;8.00;99.90;;;;;;5041998;28;20095;-74
2022/07/19 12:59:39;;;;;;;6.53;5.00;;;7.90;99.90;;;;;;5055420;28;20495;-74
2022/07/19 13:02:14;;;;;;;9.30;5.70;;;7.90;99.90;;;;;;5054553;28;20041;-75
2022/07/19 13:04:44;;;;;;;15.60;6.25;;;7.90;99.90;;;;;;5055307;28;20032;-73
2022/07/19 13:07:13;;;;;;;9.57;7.13;;;7.90;99.90;;;;;;5055092;28;20025;-73
2022/07/19 13:09:41;;;;;;;9.73;7.18;;;7.90;99.90;;;;;;5054122;28;20013;-73
2022/07/19 13:12:11;;;;;;;10.07;8.00;;;7.90;99.90;;;;;;5054936;28;20032;-74